createdAt,value
2023-02-11T00:04:43.147Z,3.00
2023-02-11T00:09:53.149Z,3.02
2023-02-11T00:15:03.024Z,3.02
2023-02-11T00:20:14.239Z,3.01
2023-02-11T00:25:23.966Z,3.02
2023-02-11T00:30:34.104Z,3.03
2023-02-11T00:35:43.903Z,3.03
2023-02-11T00:40:53.840Z,3.03
2023-02-11T00:46:04.156Z,3.05
2023-02-11T00:51:14.367Z,3.06
2023-02-11T00:56:24.178Z,3.05
2023-02-11T01:01:34.986Z,3.04
2023-02-11T01:06:44.746Z,3.02
2023-02-11T01:11:54.773Z,3.01
2023-02-11T01:17:05.871Z,3.01
2023-02-11T01:22:15.627Z,3.01
2023-02-11T01:27:25.139Z,2.99
2023-02-11T01:32:35.136Z,2.98
2023-02-11T01:37:44.798Z,2.97
2023-02-11T01:42:54.478Z,2.96
2023-02-11T01:48:05.362Z,2.97
2023-02-11T01:53:34.118Z,2.98
2023-02-11T01:58:49.466Z,3.02
2023-02-11T02:04:04.777Z,3.00
2023-02-11T02:09:20.669Z,2.98
2023-02-11T02:14:30.570Z,2.97
2023-02-11T02:20:28.523Z,2.97
2023-02-11T02:26:16.886Z,2.94
2023-02-11T02:32:00.856Z,2.93
2023-02-11T02:37:19.291Z,2.89
2023-02-11T02:42:30.243Z,2.85
2023-02-11T02:47:39.875Z,2.82
2023-02-11T02:52:59.669Z,2.81
2023-02-11T02:58:35.548Z,2.85
2023-02-11T03:03:56.726Z,2.87
2023-02-11T03:09:15.324Z,2.88
2023-02-11T03:14:28.295Z,2.86
2023-02-11T03:19:41.622Z,2.87
2023-02-11T03:24:52.455Z,2.86
2023-02-11T03:30:14.787Z,2.83
2023-02-11T03:35:30.794Z,2.83
2023-02-11T03:40:46.087Z,2.84
2023-02-11T03:45:57.924Z,2.85
2023-02-11T03:51:12.531Z,2.86
2023-02-11T03:56:26.221Z,2.87
2023-02-11T04:01:36.180Z,2.87
2023-02-11T04:06:46.144Z,2.86
2023-02-11T04:11:55.815Z,2.84
2023-02-11T04:17:05.833Z,2.85
2023-02-11T04:22:15.890Z,2.84
2023-02-11T04:27:25.722Z,2.85
2023-02-11T04:32:35.459Z,2.87
2023-02-11T04:37:45.025Z,2.87
2023-02-11T04:42:54.724Z,2.87
2023-02-11T04:48:05.080Z,2.85
2023-02-11T04:53:14.855Z,2.83
2023-02-11T04:58:25.074Z,2.80
2023-02-11T05:03:34.767Z,2.78
2023-02-11T05:08:44.718Z,2.77
2023-02-11T05:13:54.868Z,2.73
2023-02-11T05:19:04.510Z,2.67
2023-02-11T05:24:14.626Z,2.60
2023-02-11T05:29:24.161Z,2.57
2023-02-11T05:34:34.016Z,2.56
2023-02-11T05:39:43.774Z,2.55
2023-02-11T05:44:53.569Z,2.54
2023-02-11T05:50:03.450Z,2.52
2023-02-11T05:55:13.724Z,2.52
2023-02-11T06:00:24.343Z,2.53
2023-02-11T06:05:34.118Z,2.49
2023-02-11T06:10:46.000Z,2.49
2023-02-11T06:16:04.506Z,2.48
2023-02-11T06:21:15.322Z,2.49
2023-02-11T06:26:26.604Z,2.47
2023-02-11T06:31:36.486Z,2.46
2023-02-11T06:36:46.174Z,2.46
2023-02-11T06:41:56.014Z,2.47
2023-02-11T06:47:05.588Z,2.51
2023-02-11T06:52:15.439Z,2.50
2023-02-11T06:57:25.135Z,2.50
2023-02-11T07:02:34.884Z,2.53
2023-02-11T07:07:44.569Z,2.53
2023-02-11T07:12:57.681Z,2.56
2023-02-11T07:18:09.952Z,2.60
2023-02-11T07:23:19.838Z,2.62
2023-02-11T07:28:29.570Z,2.61
2023-02-11T07:33:40.006Z,2.61
2023-02-11T07:38:50.260Z,2.61
2023-02-11T07:44:00.584Z,2.60
2023-02-11T07:49:10.355Z,2.60
2023-02-11T07:54:20.047Z,2.57
2023-02-11T07:59:29.956Z,2.55
2023-02-11T08:04:40.123Z,2.53
2023-02-11T08:09:52.486Z,2.53
2023-02-11T08:15:02.144Z,2.56
2023-02-11T08:20:13.869Z,2.57
2023-02-11T08:25:23.488Z,2.58
2023-02-11T08:30:33.231Z,2.61
2023-02-11T08:35:43.010Z,2.67
2023-02-11T08:40:53.130Z,2.71
2023-02-11T08:46:03.506Z,2.72
2023-02-11T08:51:17.290Z,2.78
2023-02-11T08:56:28.238Z,2.83
2023-02-11T09:01:38.107Z,2.84
2023-02-11T09:06:48.048Z,2.85
2023-02-11T09:11:57.881Z,2.91
2023-02-11T09:17:07.855Z,2.94
2023-02-11T09:22:18.027Z,2.96
2023-02-11T09:27:27.838Z,2.97
2023-02-11T09:32:37.682Z,2.98
2023-02-11T09:37:47.590Z,3.00
2023-02-11T09:43:04.256Z,3.03
2023-02-11T09:48:22.412Z,3.05
2023-02-11T09:53:38.426Z,3.07
2023-02-11T09:58:49.317Z,3.06
2023-02-11T10:04:09.283Z,3.07
2023-02-11T10:10:04.444Z,3.10
2023-02-11T10:15:33.625Z,3.14
2023-02-11T10:20:53.346Z,3.25
2023-02-11T10:26:04.335Z,3.33
2023-02-11T10:31:19.731Z,3.41
2023-02-11T10:36:35.559Z,3.46
2023-02-11T10:41:49.723Z,3.53
2023-02-11T10:47:04.805Z,3.57
2023-02-11T10:52:26.193Z,3.62
2023-02-11T10:57:43.058Z,3.62
2023-02-11T11:03:00.590Z,3.67
2023-02-11T11:08:13.604Z,3.67
2023-02-11T11:13:33.948Z,3.73
2023-02-11T11:18:45.070Z,3.79
2023-02-11T11:24:02.493Z,3.83
2023-02-11T11:29:19.584Z,3.83
2023-02-11T11:34:35.126Z,3.79
2023-02-11T11:39:50.377Z,3.82
2023-02-11T11:45:20.854Z,3.86
2023-02-11T11:50:36.865Z,3.93
2023-02-11T11:56:02.410Z,3.97
2023-02-11T12:01:36.869Z,4.01
2023-02-11T12:07:02.573Z,4.07
2023-02-11T12:12:37.628Z,4.11
2023-02-11T12:18:09.587Z,4.11
2023-02-11T12:23:40.477Z,4.14
2023-02-11T12:29:08.094Z,4.13
2023-02-11T12:34:59.665Z,4.15
2023-02-11T12:40:22.702Z,4.21
2023-02-11T12:45:48.084Z,4.25
2023-02-11T12:51:07.813Z,4.33
2023-02-11T12:56:25.144Z,4.39
2023-02-11T13:01:44.082Z,4.43
2023-02-11T13:07:02.991Z,4.48
2023-02-11T13:12:33.968Z,4.53
2023-02-11T13:17:56.412Z,4.57
2023-02-11T13:23:19.994Z,4.59
2023-02-11T13:28:44.408Z,4.63
2023-02-11T13:33:54.842Z,4.68
2023-02-11T13:39:21.029Z,4.71
2023-02-11T13:44:35.517Z,4.76
2023-02-11T13:49:54.641Z,4.87
2023-02-11T13:55:16.857Z,5.03
2023-02-11T14:00:54.832Z,5.17
2023-02-11T14:06:39.571Z,5.28
2023-02-11T14:11:57.517Z,5.39
2023-02-11T14:17:35.922Z,5.47
2023-02-11T14:22:54.729Z,5.52
2023-02-11T14:28:16.877Z,5.56
2023-02-11T14:34:02.269Z,5.58
2023-02-11T14:39:24.440Z,5.56
2023-02-11T14:44:37.407Z,5.59
2023-02-11T14:49:48.446Z,5.59
2023-02-11T14:55:17.856Z,5.57
2023-02-11T15:00:28.053Z,5.57
2023-02-11T15:05:38.348Z,5.57
2023-02-11T15:10:49.215Z,5.59
2023-02-11T15:16:05.994Z,5.64
2023-02-11T15:21:21.959Z,5.68
2023-02-11T15:26:32.359Z,5.69
2023-02-11T15:31:43.859Z,5.69
2023-02-11T15:36:54.475Z,5.69
2023-02-11T15:42:25.730Z,5.66
2023-02-11T15:47:35.531Z,5.65
2023-02-11T15:52:50.199Z,5.65
2023-02-11T15:58:03.183Z,5.62
2023-02-11T16:03:24.603Z,5.62
2023-02-11T16:08:35.770Z,5.60
2023-02-11T16:13:50.889Z,5.59
2023-02-11T16:19:06.069Z,5.63
2023-02-11T16:24:28.299Z,5.63
2023-02-11T16:29:40.818Z,5.62
2023-02-11T16:34:51.377Z,5.64
2023-02-11T16:40:01.383Z,5.65
2023-02-11T16:45:13.585Z,5.68
2023-02-11T16:50:28.158Z,5.67
2023-02-11T16:55:38.874Z,5.58
2023-02-11T17:00:50.774Z,5.50
2023-02-11T17:06:03.387Z,5.45
2023-02-11T17:11:16.974Z,5.39
2023-02-11T17:16:30.271Z,5.35
2023-02-11T17:21:42.234Z,5.32
2023-02-11T17:26:52.573Z,5.29
2023-02-11T17:32:02.481Z,5.26
2023-02-11T17:37:12.548Z,5.23
2023-02-11T17:42:22.851Z,5.11
2023-02-11T17:47:33.031Z,4.87
2023-02-11T17:52:42.965Z,4.70
2023-02-11T17:57:53.096Z,4.58
2023-02-11T18:03:03.766Z,4.46
2023-02-11T18:08:13.522Z,4.38
2023-02-11T18:13:23.311Z,4.32
2023-02-11T18:18:33.749Z,4.24
2023-02-11T18:23:44.503Z,4.10
2023-02-11T18:28:55.192Z,3.92
2023-02-11T18:34:06.252Z,3.76
2023-02-11T18:39:16.880Z,3.62
2023-02-11T18:44:27.119Z,3.57
2023-02-11T18:49:37.231Z,3.50
2023-02-11T18:54:47.549Z,3.43
2023-02-11T18:59:57.150Z,3.42
2023-02-11T19:05:07.630Z,3.37
2023-02-11T19:10:17.870Z,3.28
2023-02-11T19:15:27.648Z,3.19
2023-02-11T19:20:40.422Z,3.10
2023-02-11T19:25:53.994Z,3.05
2023-02-11T19:31:10.926Z,2.98
2023-02-11T19:36:21.772Z,2.90
2023-02-11T19:41:32.461Z,2.81
2023-02-11T19:46:43.518Z,2.69
2023-02-11T19:51:54.339Z,2.64
2023-02-11T19:57:04.098Z,2.65
2023-02-11T20:02:15.218Z,2.61
2023-02-11T20:07:24.970Z,2.48
2023-02-11T20:12:35.894Z,2.47
2023-02-11T20:17:45.856Z,2.50
2023-02-11T20:22:56.387Z,2.52
2023-02-11T20:28:06.397Z,2.52
2023-02-11T20:33:16.531Z,2.48
2023-02-11T20:38:26.483Z,2.45
2023-02-11T20:43:38.021Z,2.44
2023-02-11T20:48:48.083Z,2.44
2023-02-11T20:53:58.757Z,2.41
2023-02-11T20:59:08.970Z,2.36
2023-02-11T21:04:22.194Z,2.33
2023-02-11T21:09:35.305Z,2.35
2023-02-11T21:14:45.354Z,2.36
2023-02-11T21:19:55.250Z,2.37
2023-02-11T21:25:06.372Z,2.37
2023-02-11T21:30:17.721Z,2.36
2023-02-11T21:35:27.753Z,2.32
2023-02-11T21:40:37.683Z,2.35
2023-02-11T21:45:51.455Z,2.39
2023-02-11T21:51:02.575Z,2.45
2023-02-11T21:56:17.219Z,2.49
2023-02-11T22:01:29.916Z,2.50
2023-02-11T22:06:40.247Z,2.50
2023-02-11T22:11:50.558Z,2.47
2023-02-11T22:17:00.401Z,2.39
2023-02-11T22:22:10.162Z,2.32
2023-02-11T22:27:20.533Z,2.25
2023-02-11T22:32:30.378Z,2.21
2023-02-11T22:37:40.288Z,2.18
2023-02-11T22:42:49.941Z,2.18
2023-02-11T22:48:00.342Z,2.16
2023-02-11T22:53:10.352Z,2.18
2023-02-11T22:58:20.384Z,2.21
2023-02-11T23:03:31.517Z,2.23
2023-02-11T23:08:43.649Z,2.26
2023-02-11T23:13:56.132Z,2.24
2023-02-11T23:19:09.185Z,2.22
2023-02-11T23:24:21.212Z,2.26
2023-02-11T23:29:30.794Z,2.26
2023-02-11T23:34:40.434Z,2.20
2023-02-11T23:39:50.392Z,2.18
2023-02-11T23:45:00.375Z,2.21
2023-02-11T23:50:12.390Z,2.21
2023-02-11T23:55:22.159Z,2.18
